createdAt,value
2022-10-29T00:02:01.171Z,14.10
2022-10-29T00:04:29.249Z,14.10
2022-10-29T00:06:57.265Z,14.10
2022-10-29T00:09:26.735Z,14.12
2022-10-29T00:11:54.699Z,14.13
2022-10-29T00:14:22.671Z,14.12
2022-10-29T00:16:50.689Z,14.12
2022-10-29T00:19:18.746Z,14.09
2022-10-29T00:21:46.805Z,14.09
2022-10-29T00:24:14.776Z,14.09
2022-10-29T00:26:44.074Z,14.03
2022-10-29T00:29:12.070Z,14.08
2022-10-29T00:31:40.095Z,14.03
2022-10-29T00:34:08.341Z,14.00
2022-10-29T00:36:36.342Z,13.97
2022-10-29T00:39:04.459Z,13.89
2022-10-29T00:41:32.543Z,13.82
2022-10-29T00:44:33.624Z,13.79
2022-10-29T00:47:05.161Z,13.71
2022-10-29T00:49:35.802Z,13.70
2022-10-29T00:52:05.153Z,13.65
2022-10-29T00:54:37.008Z,13.59
2022-10-29T00:57:09.595Z,13.54
2022-10-29T00:59:39.352Z,13.48
2022-10-29T01:02:07.548Z,13.44
2022-10-29T01:04:37.261Z,13.38
2022-10-29T01:07:06.117Z,13.36
2022-10-29T01:09:34.055Z,13.32
2022-10-29T01:12:22.447Z,13.26
2022-10-29T01:15:00.974Z,13.23
2022-10-29T01:17:37.106Z,13.22
2022-10-29T01:20:35.168Z,13.21
2022-10-29T01:23:22.127Z,13.21
2022-10-29T01:26:14.715Z,13.23
2022-10-29T01:28:58.342Z,13.24
2022-10-29T01:31:34.810Z,13.21
2022-10-29T01:34:12.000Z,13.21
2022-10-29T01:36:45.264Z,13.18
2022-10-29T01:39:21.098Z,13.20
2022-10-29T01:41:54.515Z,13.19
2022-10-29T01:44:30.804Z,13.18
2022-10-29T01:47:03.129Z,13.20
2022-10-29T01:49:36.378Z,13.18
2022-10-29T01:52:07.273Z,13.17
2022-10-29T01:54:35.348Z,13.09
2022-10-29T01:57:03.368Z,13.06
2022-10-29T01:59:51.571Z,13.01
2022-10-29T02:02:29.251Z,12.99
2022-10-29T02:05:13.086Z,12.98
2022-10-29T02:07:50.683Z,12.97
2022-10-29T02:10:29.035Z,12.93
2022-10-29T02:12:58.831Z,12.96
2022-10-29T02:15:30.712Z,12.97
2022-10-29T02:18:01.683Z,12.96
2022-10-29T02:20:30.448Z,12.93
2022-10-29T02:22:58.816Z,12.99
2022-10-29T02:25:26.937Z,13.03
2022-10-29T02:27:55.196Z,13.01
2022-10-29T02:30:23.266Z,13.03
2022-10-29T02:32:51.213Z,13.03
2022-10-29T02:35:20.629Z,13.00
2022-10-29T02:37:48.671Z,12.97
2022-10-29T02:40:16.907Z,12.96
2022-10-29T02:42:44.843Z,12.97
2022-10-29T02:45:12.801Z,12.94
2022-10-29T02:47:40.763Z,12.96
2022-10-29T02:50:09.998Z,12.94
2022-10-29T02:52:39.306Z,12.93
2022-10-29T02:55:07.865Z,12.88
2022-10-29T02:57:35.812Z,12.90
2022-10-29T03:00:03.925Z,12.90
2022-10-29T03:02:31.997Z,12.91
2022-10-29T03:05:00.016Z,12.91
2022-10-29T03:07:28.003Z,12.89
2022-10-29T03:09:57.319Z,12.88
2022-10-29T03:12:25.330Z,12.86
2022-10-29T03:14:53.310Z,12.82
2022-10-29T03:17:21.286Z,12.78
2022-10-29T03:19:49.357Z,12.76
2022-10-29T03:22:17.536Z,12.75
2022-10-29T03:24:45.540Z,12.74
2022-10-29T03:27:14.840Z,12.74
2022-10-29T03:29:42.832Z,12.68
2022-10-29T03:32:10.828Z,12.64
2022-10-29T03:34:38.798Z,12.58
2022-10-29T03:37:06.749Z,12.54
2022-10-29T03:39:34.703Z,12.52
2022-10-29T03:42:03.982Z,12.46
2022-10-29T03:44:33.314Z,12.39
2022-10-29T03:47:01.253Z,12.33
2022-10-29T03:49:29.204Z,12.31
2022-10-29T03:51:57.165Z,12.28
2022-10-29T03:54:25.272Z,12.24
2022-10-29T03:56:53.208Z,12.22
2022-10-29T03:59:21.151Z,12.17
2022-10-29T04:01:50.573Z,12.13
2022-10-29T04:04:18.617Z,12.10
2022-10-29T04:06:46.615Z,12.07
2022-10-29T04:09:14.619Z,12.05
2022-10-29T04:11:42.554Z,12.00
2022-10-29T04:14:10.995Z,11.95
2022-10-29T04:16:39.138Z,11.86
2022-10-29T04:19:08.511Z,11.91
2022-10-29T04:30:00.456Z,11.47
2022-10-29T04:32:28.917Z,11.44
2022-10-29T04:34:58.184Z,11.30
2022-10-29T04:37:26.175Z,11.27
2022-10-29T04:39:54.183Z,11.28
2022-10-29T04:42:22.158Z,11.21
2022-10-29T04:44:50.228Z,11.11
2022-10-29T04:47:18.176Z,11.04
2022-10-29T04:49:46.123Z,11.13
2022-10-29T04:52:15.461Z,11.06
2022-10-29T04:54:43.420Z,10.92
2022-10-29T04:57:11.410Z,10.84
2022-10-29T04:59:39.373Z,10.90
2022-10-29T05:02:07.341Z,10.97
2022-10-29T05:04:35.355Z,11.06
2022-10-29T05:07:03.366Z,11.17
2022-10-29T05:09:32.723Z,11.32
2022-10-29T05:12:00.706Z,11.46
2022-10-29T05:14:28.677Z,11.58
2022-10-29T05:16:56.793Z,11.71
2022-10-29T05:19:24.795Z,11.72
2022-10-29T05:21:52.744Z,11.80
2022-10-29T05:24:20.712Z,11.84
2022-10-29T05:26:50.033Z,11.88
2022-10-29T05:29:17.989Z,11.91
2022-10-29T05:31:45.949Z,11.92
2022-10-29T05:34:13.916Z,11.95
2022-10-29T05:36:41.879Z,11.97
2022-10-29T05:39:09.845Z,12.01
2022-10-29T05:41:37.901Z,11.99
2022-10-29T05:44:07.485Z,12.00
2022-10-29T05:46:35.562Z,12.03
2022-10-29T05:49:03.768Z,12.01
2022-10-29T05:51:31.871Z,12.03
2022-10-29T05:53:59.800Z,12.02
2022-10-29T05:56:27.955Z,12.01
2022-10-29T05:58:55.911Z,12.03
2022-10-29T06:01:25.326Z,12.04
2022-10-29T06:06:26.245Z,12.04
2022-10-29T06:08:54.382Z,12.01
2022-10-29T06:11:22.396Z,12.04
2022-10-29T06:13:50.410Z,12.04
2022-10-29T06:16:18.865Z,12.03
2022-10-29T06:18:48.314Z,12.05
2022-10-29T06:21:16.331Z,12.04
2022-10-29T06:23:44.380Z,11.98
2022-10-29T06:26:12.372Z,12.01
2022-10-29T06:28:40.354Z,12.02
2022-10-29T06:31:08.359Z,12.01
2022-10-29T06:33:36.394Z,12.03
2022-10-29T06:36:06.815Z,12.07
2022-10-29T06:38:34.784Z,12.07
2022-10-29T06:41:02.724Z,12.10
2022-10-29T06:43:30.704Z,12.12
2022-10-29T06:45:58.738Z,12.10
2022-10-29T06:48:26.713Z,12.12
2022-10-29T06:50:54.784Z,12.13
2022-10-29T06:53:24.356Z,12.14
2022-10-29T06:55:52.375Z,11.95
2022-10-29T06:58:22.107Z,12.17
2022-10-29T07:00:51.388Z,12.14
2022-10-29T07:03:21.288Z,12.18
2022-10-29T07:05:57.238Z,12.15
2022-10-29T07:08:27.194Z,12.25
2022-10-29T07:10:55.466Z,12.29
2022-10-29T07:13:23.920Z,12.33
2022-10-29T07:15:51.985Z,12.37
2022-10-29T07:18:19.968Z,12.41
2022-10-29T07:20:48.087Z,12.43
2022-10-29T07:23:16.157Z,12.41
2022-10-29T07:25:45.606Z,12.50
2022-10-29T07:28:16.239Z,12.47
2022-10-29T07:30:45.148Z,12.55
2022-10-29T07:33:13.471Z,12.57
2022-10-29T07:35:41.932Z,12.62
2022-10-29T07:38:11.823Z,12.56
2022-10-29T07:40:40.548Z,12.55
2022-10-29T07:43:10.091Z,12.51
2022-10-29T07:45:38.150Z,12.57
2022-10-29T07:48:08.444Z,12.57
2022-10-29T07:50:37.430Z,12.53
2022-10-29T07:53:07.754Z,12.55
2022-10-29T07:55:36.073Z,12.58
2022-10-29T07:58:05.701Z,12.61
2022-10-29T08:00:36.702Z,12.63
2022-10-29T08:03:05.641Z,12.64
2022-10-29T08:05:33.744Z,12.58
2022-10-29T08:08:01.742Z,12.62
2022-10-29T08:10:31.095Z,12.64
2022-10-29T08:13:01.138Z,12.62
2022-10-29T08:15:32.117Z,12.60
2022-10-29T08:18:01.707Z,12.55
2022-10-29T08:20:31.145Z,12.54
2022-10-29T08:23:01.993Z,12.58
2022-10-29T08:25:30.247Z,12.65
2022-10-29T08:28:02.815Z,12.71
2022-10-29T08:30:31.770Z,12.69
2022-10-29T08:33:01.759Z,12.76
2022-10-29T08:35:30.346Z,12.86
2022-10-29T08:37:58.662Z,12.96
2022-10-29T08:40:31.335Z,12.98
2022-10-29T08:43:28.996Z,13.06
2022-10-29T08:45:57.847Z,13.20
2022-10-29T08:48:40.552Z,13.33
2022-10-29T08:51:14.609Z,13.44
2022-10-29T08:53:54.143Z,13.61
2022-10-29T08:56:35.957Z,13.86
2022-10-29T08:59:07.864Z,13.98
2022-10-29T09:01:36.992Z,14.09
2022-10-29T09:04:20.357Z,14.07
2022-10-29T09:07:07.604Z,14.02
2022-10-29T09:09:40.709Z,13.91
2022-10-29T09:12:42.113Z,14.11
2022-10-29T09:15:31.376Z,14.13
2022-10-29T09:18:17.340Z,14.24
2022-10-29T09:20:55.742Z,14.30
2022-10-29T09:23:31.515Z,14.34
2022-10-29T09:26:17.503Z,14.51
2022-10-29T09:29:20.268Z,14.58
2022-10-29T09:31:51.569Z,14.68
2022-10-29T09:34:29.436Z,14.65
2022-10-29T09:36:59.629Z,14.80
2022-10-29T09:39:34.591Z,14.89
2022-10-29T09:42:03.904Z,14.86
2022-10-29T09:44:39.423Z,14.96
2022-10-29T09:47:16.736Z,14.95
2022-10-29T09:50:05.199Z,14.97
2022-10-29T09:52:41.780Z,15.02
2022-10-29T09:55:19.541Z,15.12
2022-10-29T09:57:49.629Z,15.21
2022-10-29T10:00:21.814Z,15.22
2022-10-29T10:02:56.277Z,15.18
2022-10-29T10:05:27.570Z,15.26
2022-10-29T10:08:10.933Z,15.32
2022-10-29T10:10:52.311Z,15.26
2022-10-29T10:13:24.616Z,15.22
2022-10-29T10:15:57.589Z,15.14
2022-10-29T10:18:27.184Z,15.11
2022-10-29T10:21:04.949Z,15.06
2022-10-29T10:23:44.515Z,15.03
2022-10-29T10:26:43.786Z,14.99
2022-10-29T10:29:15.405Z,15.02
2022-10-29T10:31:45.258Z,14.97
2022-10-29T10:34:19.082Z,14.96
2022-10-29T10:36:51.146Z,14.92
2022-10-29T10:39:28.650Z,14.98
2022-10-29T10:41:58.358Z,15.03
2022-10-29T10:44:27.793Z,15.08
2022-10-29T10:46:59.186Z,15.16
2022-10-29T10:49:32.967Z,15.24
2022-10-29T10:52:03.958Z,15.25
2022-10-29T10:54:37.609Z,15.10
2022-10-29T10:57:20.436Z,15.22
2022-10-29T10:59:56.228Z,15.28
2022-10-29T11:02:34.529Z,15.28
2022-10-29T11:05:13.409Z,15.35
2022-10-29T11:07:48.074Z,15.38
2022-10-29T11:10:21.542Z,15.37
2022-10-29T11:12:54.310Z,15.50
2022-10-29T11:15:31.811Z,15.50
2022-10-29T11:20:49.872Z,15.55
2022-10-29T11:23:33.896Z,15.64
2022-10-29T11:26:09.034Z,15.69
2022-10-29T11:28:41.701Z,15.78
2022-10-29T11:31:21.150Z,15.69
2022-10-29T11:33:56.928Z,15.61
2022-10-29T11:36:27.495Z,15.60
2022-10-29T11:39:01.125Z,15.54
2022-10-29T11:41:37.955Z,15.59
2022-10-29T11:44:10.229Z,15.59
2022-10-29T11:46:53.357Z,15.53
2022-10-29T11:49:44.709Z,15.50
2022-10-29T11:52:15.362Z,15.53
2022-10-29T11:55:00.633Z,15.52
2022-10-29T11:57:37.869Z,15.61
2022-10-29T12:00:14.512Z,15.70
2022-10-29T12:03:25.022Z,15.71
2022-10-29T12:06:03.942Z,15.79
2022-10-29T12:08:48.502Z,15.79
2022-10-29T12:11:26.223Z,15.62
2022-10-29T12:14:02.432Z,15.63
2022-10-29T12:16:42.187Z,15.54
2022-10-29T12:19:22.340Z,15.52
2022-10-29T12:21:58.047Z,15.51
2022-10-29T12:24:39.487Z,15.54
2022-10-29T12:27:14.557Z,15.52
2022-10-29T12:29:55.703Z,15.51
2022-10-29T12:32:28.841Z,15.54
2022-10-29T12:35:03.061Z,15.54
2022-10-29T12:37:43.317Z,15.64
2022-10-29T12:40:17.846Z,15.62
2022-10-29T12:42:47.208Z,15.60
2022-10-29T12:45:31.741Z,15.62
2022-10-29T12:48:11.471Z,15.62
2022-10-29T12:50:48.670Z,15.60
2022-10-29T12:53:25.771Z,15.68
2022-10-29T12:55:54.569Z,15.69
2022-10-29T12:58:45.364Z,15.70
2022-10-29T13:04:36.281Z,15.68
2022-10-29T13:07:06.943Z,15.66
2022-10-29T13:09:36.591Z,15.53
2022-10-29T13:12:08.323Z,15.64
2022-10-29T13:14:41.431Z,15.68
2022-10-29T13:17:26.939Z,15.69
2022-10-29T13:19:59.672Z,15.75
2022-10-29T13:22:52.008Z,15.74
2022-10-29T13:25:50.305Z,15.72
2022-10-29T13:28:50.651Z,15.70
2022-10-29T13:31:54.380Z,15.69
2022-10-29T13:34:50.488Z,15.64
2022-10-29T13:37:39.017Z,15.55
2022-10-29T13:40:58.608Z,15.53
2022-10-29T13:43:26.878Z,15.52
2022-10-29T13:46:04.967Z,15.50
2022-10-29T13:48:37.356Z,15.48
2022-10-29T13:51:08.597Z,15.44
2022-10-29T13:53:43.234Z,15.40
2022-10-29T13:56:18.200Z,15.36
2022-10-29T13:58:50.004Z,15.34
2022-10-29T14:01:22.631Z,15.32
2022-10-29T14:04:02.012Z,15.29
2022-10-29T14:06:34.454Z,15.26
2022-10-29T14:09:13.077Z,15.25
2022-10-29T14:11:44.766Z,15.23
2022-10-29T14:14:26.165Z,15.24
2022-10-29T14:17:13.290Z,15.25
2022-10-29T14:19:46.186Z,15.24
2022-10-29T14:22:30.607Z,15.30
2022-10-29T14:25:00.494Z,15.34
2022-10-29T14:27:28.591Z,15.35
2022-10-29T14:30:15.013Z,15.34
2022-10-29T14:32:45.331Z,15.33
2022-10-29T14:35:17.569Z,15.28
2022-10-29T14:37:49.211Z,15.28
2022-10-29T14:40:22.359Z,15.14
2022-10-29T14:42:54.559Z,15.19
2022-10-29T14:45:28.323Z,15.18
2022-10-29T14:47:58.287Z,15.13
2022-10-29T14:50:28.201Z,15.13
2022-10-29T14:52:59.007Z,15.08
2022-10-29T14:55:32.866Z,15.09
2022-10-29T14:58:05.722Z,15.09
2022-10-29T15:00:37.109Z,15.06
2022-10-29T15:03:06.986Z,15.05
2022-10-29T15:05:37.084Z,15.05
2022-10-29T15:08:07.706Z,15.06
2022-10-29T15:10:48.015Z,15.04
2022-10-29T15:13:22.963Z,15.02
2022-10-29T15:15:57.952Z,14.96
2022-10-29T15:18:28.448Z,14.90
2022-10-29T15:20:57.394Z,14.87
2022-10-29T15:23:28.002Z,14.90
2022-10-29T15:26:03.707Z,14.82
2022-10-29T15:28:37.865Z,14.76
2022-10-29T15:31:06.280Z,14.76
2022-10-29T15:33:38.217Z,14.75
2022-10-29T15:36:24.227Z,14.73
2022-10-29T15:39:26.702Z,14.66
2022-10-29T15:41:59.394Z,14.63
2022-10-29T15:44:36.428Z,14.57
2022-10-29T15:47:20.784Z,14.45
2022-10-29T15:49:48.830Z,14.48
2022-10-29T15:52:19.132Z,14.44
2022-10-29T15:54:47.767Z,14.41
2022-10-29T15:57:17.752Z,14.36
2022-10-29T15:59:45.711Z,14.32
2022-10-29T16:02:17.180Z,14.29
2022-10-29T16:04:45.259Z,14.25
2022-10-29T16:07:14.594Z,14.20
2022-10-29T16:09:46.712Z,14.18
2022-10-29T16:12:14.867Z,14.15
2022-10-29T16:14:44.410Z,14.13
2022-10-29T16:17:17.164Z,14.09
2022-10-29T16:19:45.354Z,14.07
2022-10-29T16:22:16.023Z,14.03
2022-10-29T16:24:44.036Z,14.00
2022-10-29T16:27:15.355Z,13.89
2022-10-29T16:29:46.978Z,13.87
2022-10-29T16:32:16.628Z,13.84
2022-10-29T16:34:45.051Z,13.81
2022-10-29T16:37:14.408Z,13.81
2022-10-29T16:39:42.618Z,13.83
2022-10-29T16:42:23.480Z,13.84
2022-10-29T16:44:52.796Z,13.85
2022-10-29T16:47:20.776Z,13.87
2022-10-29T16:49:49.051Z,13.87
2022-10-29T16:52:20.952Z,13.86
2022-10-29T16:54:51.203Z,13.87
2022-10-29T16:57:19.158Z,13.88
2022-10-29T16:59:47.099Z,13.87
2022-10-29T17:02:16.449Z,13.85
2022-10-29T17:04:44.469Z,13.81
2022-10-29T17:07:12.432Z,13.80
2022-10-29T17:09:40.398Z,13.76
2022-10-29T17:12:09.061Z,13.77
2022-10-29T17:14:37.050Z,13.72
2022-10-29T17:17:05.068Z,13.71
2022-10-29T17:19:34.467Z,13.66
2022-10-29T17:22:04.141Z,13.62
2022-10-29T17:24:32.362Z,13.59
2022-10-29T17:27:00.428Z,13.57
2022-10-29T17:29:32.467Z,13.53
2022-10-29T17:34:37.788Z,13.48
2022-10-29T17:37:06.369Z,13.50
2022-10-29T17:39:34.613Z,13.52
2022-10-29T17:42:02.816Z,13.54
2022-10-29T17:44:32.026Z,13.53
2022-10-29T17:47:00.003Z,13.54
2022-10-29T17:49:28.004Z,13.58
2022-10-29T17:51:57.481Z,13.55
2022-10-29T17:54:27.334Z,13.54
2022-10-29T17:56:55.318Z,13.53
2022-10-29T17:59:23.357Z,13.48
2022-10-29T18:01:51.432Z,13.51
2022-10-29T18:04:19.485Z,13.47
2022-10-29T18:06:47.493Z,13.44
2022-10-29T18:09:20.216Z,13.45
2022-10-29T18:11:49.885Z,13.41
2022-10-29T18:14:18.046Z,13.38
2022-10-29T18:16:46.495Z,13.36
2022-10-29T18:19:14.560Z,13.36
2022-10-29T18:21:42.590Z,13.36
2022-10-29T18:24:10.931Z,13.36
2022-10-29T18:26:44.517Z,13.35
2022-10-29T18:29:13.429Z,13.32
2022-10-29T18:31:44.953Z,13.29
2022-10-29T18:34:15.026Z,13.31
2022-10-29T18:36:43.774Z,13.24
2022-10-29T18:39:11.756Z,13.25
2022-10-29T18:41:41.082Z,13.24
2022-10-29T18:44:09.042Z,13.25
2022-10-29T18:46:37.014Z,13.21
2022-10-29T18:49:05.125Z,13.22
2022-10-29T18:51:33.732Z,13.21
2022-10-29T18:54:01.816Z,13.19
2022-10-29T18:56:31.097Z,13.18
2022-10-29T18:59:00.712Z,13.17
2022-10-29T19:01:31.911Z,13.14
2022-10-29T19:04:01.536Z,13.13
2022-10-29T19:06:32.091Z,12.99
2022-10-29T19:09:01.424Z,13.11
2022-10-29T19:11:30.388Z,13.14
2022-10-29T19:14:01.068Z,13.13
2022-10-29T19:16:30.039Z,13.15
2022-10-29T19:18:59.747Z,13.14
2022-10-29T19:21:28.257Z,13.11
2022-10-29T19:23:57.275Z,13.11
2022-10-29T19:26:26.788Z,13.07
2022-10-29T19:28:55.044Z,13.08
2022-10-29T19:31:26.678Z,13.08
2022-10-29T19:33:56.928Z,13.06
2022-10-29T19:36:26.044Z,13.08
2022-10-29T19:38:54.024Z,13.08
2022-10-29T19:41:22.110Z,13.07
2022-10-29T19:43:50.381Z,13.08
2022-10-29T19:46:22.752Z,13.13
2022-10-29T19:48:53.302Z,13.00
2022-10-29T19:51:21.768Z,13.12
2022-10-29T19:53:51.351Z,13.11
2022-10-29T19:56:19.926Z,13.06
2022-10-29T19:58:48.125Z,13.00
2022-10-29T20:01:17.863Z,12.80
2022-10-29T20:03:46.645Z,12.95
2022-10-29T20:06:17.989Z,12.95
2022-10-29T20:08:46.124Z,12.91
2022-10-29T20:11:14.182Z,12.90
2022-10-29T20:13:42.213Z,12.90
2022-10-29T20:16:12.102Z,12.89
2022-10-29T20:18:40.119Z,12.85
2022-10-29T20:21:08.537Z,12.86
2022-10-29T20:23:37.982Z,12.84
2022-10-29T20:26:07.025Z,12.85
2022-10-29T20:28:35.457Z,12.60
2022-10-29T20:31:29.713Z,12.73
2022-10-29T20:33:59.954Z,12.71
2022-10-29T20:36:31.095Z,12.72
2022-10-29T20:39:00.891Z,12.72
2022-10-29T20:41:29.751Z,12.70
2022-10-29T20:43:59.030Z,12.71
2022-10-29T20:46:27.624Z,12.78
2022-10-29T20:48:56.009Z,12.76
2022-10-29T20:51:24.694Z,12.77
2022-10-29T20:53:53.057Z,12.82
2022-10-29T20:56:24.103Z,12.79
2022-10-29T20:58:52.169Z,12.79
2022-10-29T21:01:22.874Z,12.76
2022-10-29T21:03:51.848Z,12.74
2022-10-29T21:06:20.640Z,12.75
2022-10-29T21:08:49.799Z,12.75
2022-10-29T21:11:19.544Z,12.68
2022-10-29T21:13:49.027Z,12.76
2022-10-29T21:16:18.212Z,12.74
2022-10-29T21:18:47.969Z,12.73
2022-10-29T21:21:16.772Z,12.72
2022-10-29T21:23:45.032Z,12.68
2022-10-29T21:26:15.228Z,12.58
2022-10-29T21:28:43.203Z,12.63
2022-10-29T21:31:12.649Z,12.58
2022-10-29T21:33:40.979Z,12.53
2022-10-29T21:36:10.715Z,12.49
2022-10-29T21:38:38.672Z,12.44
2022-10-29T21:41:07.006Z,12.40
2022-10-29T21:43:35.164Z,12.39
2022-10-29T21:46:03.124Z,12.38
2022-10-29T21:48:32.658Z,12.40
2022-10-29T21:51:02.850Z,12.40
2022-10-29T21:53:31.210Z,12.38
2022-10-29T21:56:00.052Z,12.36
2022-10-29T21:58:28.307Z,12.34
2022-10-29T22:01:03.489Z,12.34
2022-10-29T22:03:33.715Z,12.34
2022-10-29T22:06:06.334Z,12.31
2022-10-29T22:08:34.742Z,12.26
2022-10-29T22:11:03.610Z,12.21
2022-10-29T22:13:33.297Z,12.18
2022-10-29T22:16:01.580Z,12.13
2022-10-29T22:18:30.284Z,12.08
2022-10-29T22:21:08.653Z,12.01
2022-10-29T22:23:38.159Z,12.04
2022-10-29T22:26:06.249Z,12.03
2022-10-29T22:28:34.267Z,12.02
2022-10-29T22:31:03.681Z,12.02
2022-10-29T22:33:31.747Z,12.02
2022-10-29T22:36:06.962Z,12.02
2022-10-29T22:38:35.090Z,12.02
2022-10-29T22:41:07.484Z,12.04
2022-10-29T22:43:35.637Z,12.06
2022-10-29T22:46:04.318Z,12.09
2022-10-29T22:48:32.492Z,12.07
2022-10-29T22:51:01.744Z,12.04
2022-10-29T22:53:31.084Z,12.05
2022-10-29T22:55:59.794Z,12.00
2022-10-29T22:58:27.743Z,11.95
2022-10-29T23:01:03.410Z,11.95
2022-10-29T23:03:31.530Z,11.98
2022-10-29T23:06:00.032Z,11.98
2022-10-29T23:08:28.494Z,11.94
2022-10-29T23:10:58.246Z,11.91
2022-10-29T23:13:26.360Z,11.86
2022-10-29T23:15:54.562Z,11.84
2022-10-29T23:18:22.483Z,11.83
2022-10-29T23:20:58.968Z,11.80
2022-10-29T23:23:27.048Z,11.81
2022-10-29T23:26:00.383Z,11.83
2022-10-29T23:28:30.493Z,11.81
2022-10-29T23:30:59.756Z,11.80
2022-10-29T23:33:28.083Z,11.79
2022-10-29T23:35:56.324Z,11.75
2022-10-29T23:38:24.400Z,11.75
2022-10-29T23:40:52.359Z,11.75
2022-10-29T23:43:20.322Z,11.78
2022-10-29T23:45:49.723Z,11.80
2022-10-29T23:48:17.716Z,11.82
2022-10-29T23:50:45.750Z,11.85
2022-10-29T23:53:14.422Z,11.88
2022-10-29T23:55:43.290Z,11.89
2022-10-29T23:58:11.758Z,11.87
